Gotland Marieann — C6YL8 — position and weather

sailwx.info

Track history (hours):
 
Tides and Currents Weather Stations Pressure Air Temp Water Temp Dewpoint Dewpoint Depression Visibility Wind Speed Wind Dir Waves Ship Positions

Gotland Marieann

Last reported at 2018-Jan-23 09:22 UTC. Time now 2018-Jan-23 18:14 UTC.
Position N 40°35' W 074°12'.

Length 183 m; draft 9 m.

Type: Ship (hazmat cat D). MMSI: 311037700.

Date/timePositionNaut miles runAvg speedWind from/ knotsBaromVisibWave heightAir tempDewpointWater temp
2018-Jan-23 09:22N 40°35' W 074°12'1 1.9
2018-Jan-23 09:00N 40°36' W 074°12'2 4.0
2018-Jan-23 08:29N 40°38' W 074°12'3 5.8
2018-Jan-23 08:00N 40°39' W 074°08'3 6.2
2018-Jan-23 07:30N 40°39' W 074°04'3 6.8
2018-Jan-23 07:00N 40°36' W 074°02'1 2.9
2018-Jan-23 06:30N 40°35' W 074°02'3 5.7
2018-Jan-23 06:00N 40°32' W 074°01'4 8.1
2018-Jan-23 05:30N 40°30' W 073°56'5 9.2
2018-Jan-23 05:00N 40°28' W 073°51'3 6.6
2018-Jan-23 04:30N 40°27' W 073°47'2 3.6
2018-Jan-23 04:00N 40°28' W 073°44'3 5.3
2018-Jan-23 03:27N 40°28' W 073°41'2 0.2
2018-Jan-22 16:15N 40°29' W 073°38'  
Track history (hours):
 
Tides and Currents Weather Stations Pressure Air Temp Water Temp Dewpoint Dewpoint Depression Visibility Wind Speed Wind Dir Waves Ship Positions

Gotland Marieann

Last reported at 2018-Jan-23 09:22 UTC. Time now 2018-Jan-23 18:14 UTC.
Position N 40°35' W 074°12'.

Length 183 m; draft 9 m.

Type: Ship (hazmat cat D). MMSI: 311037700.

Date/timePositionNaut miles runAvg speedWind from/ knotsBaromVisibWave heightAir tempDewpointWater temp
2018-Jan-23 09:22N 40°35' W 074°12'1 1.9
2018-Jan-23 09:00N 40°36' W 074°12'2 4.0
2018-Jan-23 08:29N 40°38' W 074°12'3 5.8
2018-Jan-23 08:00N 40°39' W 074°08'3 6.2
2018-Jan-23 07:30N 40°39' W 074°04'3 6.8
2018-Jan-23 07:00N 40°36' W 074°02'1 2.9
2018-Jan-23 06:30N 40°35' W 074°02'3 5.7
2018-Jan-23 06:00N 40°32' W 074°01'4 8.1
2018-Jan-23 05:30N 40°30' W 073°56'5 9.2
2018-Jan-23 05:00N 40°28' W 073°51'3 6.6
2018-Jan-23 04:30N 40°27' W 073°47'2 3.6
2018-Jan-23 04:00N 40°28' W 073°44'3 5.3
2018-Jan-23 03:27N 40°28' W 073°41'2 0.2
2018-Jan-22 16:15N 40°29' W 073°38'  

Dump ship's entire track history